createdAt,value
2023-09-09T00:00:32.670Z,19.86
2023-09-09T00:01:32.675Z,19.84
2023-09-09T00:02:32.633Z,19.79
2023-09-09T00:03:32.735Z,19.78
2023-09-09T00:04:32.763Z,19.73
2023-09-09T00:05:32.617Z,19.69
2023-09-09T00:06:32.640Z,19.69
2023-09-09T00:07:32.578Z,19.69
2023-09-09T00:08:32.566Z,19.65
2023-09-09T00:09:32.633Z,19.66
2023-09-09T00:10:32.516Z,19.61
2023-09-09T00:11:32.606Z,19.58
2023-09-09T00:12:32.486Z,19.57
2023-09-09T00:13:32.513Z,19.57
2023-09-09T00:14:33.275Z,19.55
2023-09-09T00:15:32.515Z,19.54
2023-09-09T00:16:32.507Z,19.53
2023-09-09T00:17:32.463Z,19.50
2023-09-09T00:18:32.443Z,19.50
2023-09-09T00:19:32.507Z,19.51
2023-09-09T00:20:32.380Z,19.48
2023-09-09T00:21:32.388Z,19.48
2023-09-09T00:22:32.389Z,19.50
2023-09-09T00:23:32.397Z,19.48
2023-09-09T00:24:32.360Z,19.48
2023-09-09T00:25:32.317Z,19.48
2023-09-09T00:26:32.319Z,19.50
2023-09-09T00:27:32.297Z,19.50
2023-09-09T00:28:32.348Z,19.51
2023-09-09T00:29:32.299Z,19.50
2023-09-09T00:30:32.244Z,19.47
2023-09-09T00:31:32.319Z,19.48
2023-09-09T00:32:32.272Z,19.47
2023-09-09T00:33:32.215Z,19.48
2023-09-09T00:34:32.290Z,19.50
2023-09-09T00:35:32.215Z,19.50
2023-09-09T00:36:32.171Z,19.47
2023-09-09T00:37:32.207Z,19.47
2023-09-09T00:38:32.177Z,19.48
2023-09-09T00:39:32.161Z,19.47
2023-09-09T00:40:32.154Z,19.50
2023-09-09T00:41:32.130Z,19.47
2023-09-09T00:42:32.089Z,19.47
2023-09-09T00:43:32.087Z,19.50
2023-09-09T00:44:32.074Z,19.46
2023-09-09T00:45:32.061Z,19.46
2023-09-09T00:46:32.883Z,19.46
2023-09-09T00:47:32.117Z,19.43
2023-09-09T00:48:32.047Z,19.43
2023-09-09T00:49:32.014Z,19.43
2023-09-09T00:50:31.984Z,19.40
2023-09-09T00:51:32.011Z,19.38
2023-09-09T00:52:31.971Z,19.38
2023-09-09T00:53:32.042Z,19.36
2023-09-09T00:54:31.977Z,19.35
2023-09-09T00:55:31.935Z,19.33
2023-09-09T00:56:31.921Z,19.32
2023-09-09T00:57:31.914Z,19.29
2023-09-09T00:58:32.778Z,19.25
2023-09-09T00:59:31.912Z,19.23
2023-09-09T01:00:31.861Z,19.23
2023-09-09T01:01:31.946Z,19.18
2023-09-09T01:02:32.075Z,19.18
2023-09-09T01:03:32.062Z,19.14
2023-09-09T01:04:31.862Z,19.17
2023-09-09T01:05:31.799Z,19.14
2023-09-09T01:06:31.786Z,19.13
2023-09-09T01:07:31.800Z,19.13
2023-09-09T01:08:31.780Z,19.11
2023-09-09T01:09:31.766Z,19.11
2023-09-09T01:10:31.742Z,19.13
2023-09-09T01:11:31.715Z,19.13
2023-09-09T01:12:31.687Z,19.11
2023-09-09T01:13:33.228Z,19.13
2023-09-09T01:14:31.763Z,19.10
2023-09-09T01:15:31.695Z,19.13
2023-09-09T01:16:31.657Z,19.10
2023-09-09T01:17:31.731Z,19.06
2023-09-09T01:18:31.620Z,19.06
2023-09-09T01:19:31.620Z,19.05
2023-09-09T01:20:31.588Z,18.98
2023-09-09T01:21:31.659Z,18.99
2023-09-09T01:22:32.254Z,18.95
2023-09-09T01:23:31.586Z,18.94
2023-09-09T01:24:32.249Z,18.91
2023-09-09T01:25:31.525Z,18.91
2023-09-09T01:26:31.539Z,18.90
2023-09-09T01:27:31.517Z,18.92
2023-09-09T01:28:31.488Z,18.87
2023-09-09T01:29:32.273Z,18.90
2023-09-09T01:30:31.479Z,18.91
2023-09-09T01:31:31.517Z,18.91
2023-09-09T01:32:31.472Z,18.92
2023-09-09T01:33:31.483Z,18.92
2023-09-09T01:34:31.467Z,18.91
2023-09-09T01:35:31.418Z,18.92
2023-09-09T01:36:31.408Z,18.94
2023-09-09T01:37:31.419Z,18.94
2023-09-09T01:38:31.365Z,18.94
2023-09-09T01:39:31.423Z,18.99
2023-09-09T01:40:31.338Z,18.97
2023-09-09T01:41:31.334Z,19.01
2023-09-09T01:42:31.333Z,18.99
2023-09-09T01:43:31.292Z,19.02
2023-09-09T01:44:31.301Z,19.05
2023-09-09T01:45:31.293Z,19.02
2023-09-09T01:46:31.351Z,19.02
2023-09-09T01:47:31.316Z,19.08
2023-09-09T01:48:31.297Z,19.10
2023-09-09T01:49:31.784Z,19.06
2023-09-09T01:50:31.653Z,19.08
2023-09-09T01:51:31.218Z,19.11
2023-09-09T01:52:31.215Z,19.11
2023-09-09T01:53:31.222Z,19.06
2023-09-09T01:54:31.201Z,19.08
2023-09-09T01:55:31.290Z,19.06
2023-09-09T01:56:31.731Z,19.05
2023-09-09T01:57:31.120Z,19.05
2023-09-09T01:58:31.152Z,19.01
2023-09-09T01:59:31.166Z,19.02
2023-09-09T02:00:31.278Z,19.01
2023-09-09T02:01:31.086Z,18.99
2023-09-09T02:02:31.133Z,19.01
2023-09-09T02:03:31.147Z,19.01
2023-09-09T02:04:31.015Z,18.98
2023-09-09T02:05:31.015Z,19.01
2023-09-09T02:06:30.997Z,19.01
2023-09-09T02:07:30.968Z,18.98
2023-09-09T02:08:30.966Z,18.97
2023-09-09T02:09:30.989Z,18.98
2023-09-09T02:10:30.956Z,18.97
2023-09-09T02:11:30.925Z,18.97
2023-09-09T02:12:30.906Z,19.01
2023-09-09T02:13:30.955Z,18.99
2023-09-09T02:14:30.924Z,18.99
2023-09-09T02:15:30.877Z,18.98
2023-09-09T02:16:30.909Z,18.99
2023-09-09T02:17:30.885Z,18.99
2023-09-09T02:18:30.865Z,18.99
2023-09-09T02:19:30.825Z,19.01
2023-09-09T02:20:31.298Z,18.99
2023-09-09T02:21:30.798Z,19.02
2023-09-09T02:22:30.825Z,19.01
2023-09-09T02:23:30.795Z,19.02
2023-09-09T02:24:30.766Z,19.01
2023-09-09T02:25:30.785Z,19.01
2023-09-09T02:26:30.727Z,19.02
2023-09-09T02:27:30.797Z,19.01
2023-09-09T02:28:30.728Z,19.01
2023-09-09T02:29:30.741Z,19.02
2023-09-09T02:30:30.728Z,19.05
2023-09-09T02:31:30.721Z,19.01
2023-09-09T02:32:30.685Z,19.05
2023-09-09T02:33:31.050Z,19.02
2023-09-09T02:34:30.618Z,19.02
2023-09-09T02:35:31.269Z,19.01
2023-09-09T02:36:30.604Z,19.01
2023-09-09T02:37:30.595Z,19.01
2023-09-09T02:38:30.594Z,19.06
2023-09-09T02:39:30.594Z,19.08
2023-09-09T02:40:30.554Z,19.02
2023-09-09T02:41:30.524Z,19.05
2023-09-09T02:42:31.509Z,19.05
2023-09-09T02:43:30.518Z,19.05
2023-09-09T02:44:30.487Z,19.02
2023-09-09T02:45:30.500Z,19.05
2023-09-09T02:46:31.043Z,19.02
2023-09-09T02:47:30.443Z,19.10
2023-09-09T02:48:30.543Z,19.05
2023-09-09T02:49:31.082Z,19.05
2023-09-09T02:50:30.884Z,19.02
2023-09-09T02:51:30.378Z,19.05
2023-09-09T02:52:30.498Z,19.06
2023-09-09T02:53:30.354Z,19.08
2023-09-09T02:54:30.375Z,19.06
2023-09-09T02:55:30.381Z,19.08
2023-09-09T02:56:30.350Z,19.08
2023-09-09T02:57:30.301Z,19.08
2023-09-09T02:58:30.373Z,19.05
2023-09-09T02:59:30.293Z,19.11
2023-09-09T03:00:31.241Z,19.05
2023-09-09T03:01:30.409Z,19.10
2023-09-09T03:02:30.326Z,19.08
2023-09-09T03:03:30.374Z,19.08
2023-09-09T03:04:30.219Z,19.05
2023-09-09T03:05:30.260Z,19.05
2023-09-09T03:06:30.261Z,19.06
2023-09-09T03:07:30.189Z,19.05
2023-09-09T03:08:30.195Z,19.05
2023-09-09T03:09:30.184Z,19.05
2023-09-09T03:10:30.154Z,19.06
2023-09-09T03:11:30.157Z,19.02
2023-09-09T03:12:30.194Z,19.06
2023-09-09T03:13:30.087Z,19.02
2023-09-09T03:14:30.116Z,19.05
2023-09-09T03:15:30.102Z,19.02
2023-09-09T03:16:30.149Z,19.01
2023-09-09T03:17:30.121Z,19.05
2023-09-09T03:18:30.097Z,19.06
2023-09-09T03:19:30.060Z,19.02
2023-09-09T03:20:30.449Z,19.05
2023-09-09T03:21:29.999Z,19.02
2023-09-09T03:22:29.997Z,19.02
2023-09-09T03:23:29.964Z,19.02
2023-09-09T03:24:29.968Z,19.05
2023-09-09T03:25:30.707Z,18.98
2023-09-09T03:26:29.961Z,19.02
2023-09-09T03:27:30.709Z,19.02
2023-09-09T03:28:29.896Z,19.02
2023-09-09T03:29:29.899Z,19.02
2023-09-09T03:30:29.878Z,18.99
2023-09-09T03:31:29.919Z,18.99
2023-09-09T03:32:29.944Z,19.01
2023-09-09T03:33:29.856Z,19.01
2023-09-09T03:34:29.818Z,19.01
2023-09-09T03:35:29.813Z,19.02
2023-09-09T03:36:29.855Z,18.99
2023-09-09T03:37:29.801Z,18.97
2023-09-09T03:38:29.775Z,18.99
2023-09-09T03:39:29.750Z,18.99
2023-09-09T03:40:29.908Z,18.99
2023-09-09T03:41:29.710Z,19.02
2023-09-09T03:42:29.747Z,19.01
2023-09-09T03:43:29.787Z,19.01
2023-09-09T03:44:29.725Z,18.99
2023-09-09T03:45:29.739Z,19.02
2023-09-09T03:46:30.204Z,18.99
2023-09-09T03:47:29.653Z,19.01
2023-09-09T03:48:29.698Z,19.02
2023-09-09T03:49:30.188Z,19.02
2023-09-09T03:50:29.930Z,19.05
2023-09-09T03:51:29.592Z,19.08
2023-09-09T03:52:29.653Z,19.06
2023-09-09T03:53:29.591Z,19.06
2023-09-09T03:54:29.566Z,19.05
2023-09-09T03:55:29.547Z,19.06
2023-09-09T03:56:29.564Z,19.10
2023-09-09T03:57:29.502Z,19.06
2023-09-09T03:58:29.509Z,19.05
2023-09-09T03:59:29.475Z,19.06
2023-09-09T04:00:30.259Z,19.06
2023-09-09T04:01:29.873Z,19.06
2023-09-09T04:02:29.493Z,19.10
2023-09-09T04:03:29.689Z,19.06
2023-09-09T04:04:29.512Z,19.08
2023-09-09T04:05:30.189Z,19.06
2023-09-09T04:06:30.199Z,19.06
2023-09-09T04:07:29.399Z,19.06
2023-09-09T04:08:29.401Z,19.02
2023-09-09T04:09:29.363Z,19.06
2023-09-09T04:10:29.349Z,19.05
2023-09-09T04:11:29.317Z,19.02
2023-09-09T04:12:29.359Z,19.01
2023-09-09T04:13:29.535Z,19.02
2023-09-09T04:14:30.197Z,19.01
2023-09-09T04:15:29.260Z,18.99
2023-09-09T04:16:29.447Z,19.01
2023-09-09T04:17:29.463Z,18.99
2023-09-09T04:18:42.910Z,18.97
2023-09-09T04:19:29.214Z,18.94
2023-09-09T04:20:30.509Z,18.95
2023-09-09T04:21:29.183Z,18.95
2023-09-09T04:22:29.202Z,18.92
2023-09-09T04:23:29.189Z,18.92
2023-09-09T04:24:29.215Z,18.95
2023-09-09T04:25:31.061Z,18.91
2023-09-09T04:26:29.131Z,18.94
2023-09-09T04:27:29.160Z,18.91
2023-09-09T04:28:29.115Z,18.92
2023-09-09T04:29:29.097Z,18.92
2023-09-09T04:30:29.079Z,18.91
2023-09-09T04:31:29.096Z,18.84
2023-09-09T04:32:29.065Z,18.83
2023-09-09T04:33:29.020Z,18.84
2023-09-09T04:34:29.085Z,18.80
2023-09-09T04:35:29.007Z,18.80
2023-09-09T04:36:29.142Z,18.83
2023-09-09T04:37:29.039Z,18.80
2023-09-09T04:38:28.990Z,18.82
2023-09-09T04:39:28.958Z,18.82
2023-09-09T04:40:28.958Z,18.79
2023-09-09T04:41:28.925Z,18.80
2023-09-09T04:42:28.920Z,18.82
2023-09-09T04:43:28.918Z,18.80
2023-09-09T04:44:28.934Z,18.83
2023-09-09T04:45:28.864Z,18.80
2023-09-09T04:46:28.904Z,18.83
2023-09-09T04:47:28.885Z,18.82
2023-09-09T04:48:28.871Z,18.80
2023-09-09T04:49:28.885Z,18.82
2023-09-09T04:50:28.816Z,18.84
2023-09-09T04:51:29.673Z,18.84
2023-09-09T04:52:28.784Z,18.86
2023-09-09T04:53:28.766Z,18.84
2023-09-09T04:54:28.773Z,18.87
2023-09-09T04:55:28.734Z,18.86
2023-09-09T04:56:28.720Z,18.92
2023-09-09T04:57:28.742Z,18.94
2023-09-09T04:58:28.874Z,18.97
2023-09-09T04:59:28.698Z,18.98
2023-09-09T05:00:28.673Z,19.05
2023-09-09T05:01:28.670Z,19.06
2023-09-09T05:02:28.730Z,19.08
2023-09-09T05:03:28.697Z,19.14
2023-09-09T05:04:28.773Z,19.15
2023-09-09T05:05:29.218Z,19.18
2023-09-09T05:06:29.464Z,19.21
2023-09-09T05:07:28.684Z,19.28
2023-09-09T05:08:28.583Z,19.28
2023-09-09T05:09:28.596Z,19.31
2023-09-09T05:10:28.610Z,19.35
2023-09-09T05:11:28.542Z,19.38
2023-09-09T05:12:28.560Z,19.42
2023-09-09T05:13:28.539Z,19.43
2023-09-09T05:14:28.501Z,19.48
2023-09-09T05:15:28.468Z,19.53
2023-09-09T05:16:28.534Z,19.54
2023-09-09T05:17:28.478Z,19.58
2023-09-09T05:18:29.366Z,19.60
2023-09-09T05:19:28.450Z,19.66
2023-09-09T05:20:28.458Z,19.66
2023-09-09T05:21:28.391Z,19.72
2023-09-09T05:22:28.393Z,19.73
2023-09-09T05:23:28.428Z,19.76
2023-09-09T05:24:28.362Z,19.80
2023-09-09T05:25:28.354Z,19.84
2023-09-09T05:26:28.350Z,19.87
2023-09-09T05:27:28.342Z,19.91
2023-09-09T05:28:28.338Z,19.94
2023-09-09T05:29:28.283Z,19.93
2023-09-09T05:30:28.337Z,20.00
2023-09-09T05:31:28.300Z,20.05
2023-09-09T05:32:28.373Z,20.08
2023-09-09T05:33:28.389Z,20.09
2023-09-09T05:34:28.320Z,20.13
2023-09-09T05:35:28.253Z,20.15
2023-09-09T05:36:28.620Z,20.18
2023-09-09T05:37:28.184Z,20.20
2023-09-09T05:38:28.247Z,20.20
2023-09-09T05:39:28.172Z,20.21
2023-09-09T05:40:28.166Z,20.23
2023-09-09T05:41:28.120Z,20.27
2023-09-09T05:42:28.222Z,20.28
2023-09-09T05:43:28.107Z,20.28
2023-09-09T05:44:28.102Z,20.31
2023-09-09T05:45:28.135Z,20.33
2023-09-09T05:46:28.124Z,20.33
2023-09-09T05:47:28.091Z,20.35
2023-09-09T05:48:28.097Z,20.38
2023-09-09T05:49:38.583Z,20.41
2023-09-09T05:50:28.033Z,20.42
2023-09-09T05:51:27.996Z,20.46
2023-09-09T05:52:28.082Z,20.49
2023-09-09T05:53:27.998Z,20.49
2023-09-09T05:54:27.964Z,20.53
2023-09-09T05:55:27.948Z,20.53
2023-09-09T05:56:27.968Z,20.58
2023-09-09T05:57:27.945Z,20.58
2023-09-09T05:58:27.924Z,20.59
2023-09-09T05:59:27.946Z,20.64
2023-09-09T06:00:27.931Z,20.61
2023-09-09T06:01:27.933Z,20.64
2023-09-09T06:02:27.990Z,20.66
2023-09-09T06:03:28.023Z,20.66
2023-09-09T06:04:27.939Z,20.71
2023-09-09T06:05:27.839Z,20.72
2023-09-09T06:06:27.804Z,20.76
2023-09-09T06:07:27.808Z,20.79
2023-09-09T06:08:27.795Z,20.83
2023-09-09T06:09:27.779Z,20.86
2023-09-09T06:10:27.783Z,20.93
2023-09-09T06:11:27.751Z,20.99
2023-09-09T06:12:27.733Z,21.01
2023-09-09T06:13:27.741Z,21.08
2023-09-09T06:14:27.708Z,21.13
2023-09-09T06:15:27.678Z,21.16
2023-09-09T06:16:27.707Z,21.21
2023-09-09T06:17:27.704Z,21.27
2023-09-09T06:18:27.630Z,21.35
2023-09-09T06:19:27.668Z,21.38
2023-09-09T06:20:27.622Z,21.46
2023-09-09T06:21:27.606Z,21.51
2023-09-09T06:22:27.578Z,21.59
2023-09-09T06:23:27.566Z,21.67
2023-09-09T06:24:27.582Z,21.69
2023-09-09T06:25:27.560Z,21.78
2023-09-09T06:26:27.529Z,21.79
2023-09-09T06:27:27.610Z,21.90
2023-09-09T06:28:27.588Z,21.92
2023-09-09T06:29:27.622Z,21.99
2023-09-09T06:30:27.534Z,22.07
2023-09-09T06:31:27.572Z,22.12
2023-09-09T06:32:27.636Z,22.19
2023-09-09T06:33:27.469Z,22.25
2023-09-09T06:34:27.429Z,22.34
2023-09-09T06:35:27.422Z,22.39
2023-09-09T06:36:27.411Z,22.47
2023-09-09T06:37:27.414Z,22.53
2023-09-09T06:38:27.382Z,22.64
2023-09-09T06:39:27.400Z,22.68
2023-09-09T06:40:27.409Z,22.77
2023-09-09T06:41:27.324Z,22.87
2023-09-09T06:42:27.327Z,22.94
2023-09-09T06:43:27.339Z,22.99
2023-09-09T06:44:27.307Z,23.05
2023-09-09T06:45:27.288Z,23.12
2023-09-09T06:46:27.270Z,23.20
2023-09-09T06:47:27.274Z,23.29
2023-09-09T06:48:27.255Z,23.39
2023-09-09T06:49:27.213Z,23.45
2023-09-09T06:50:27.291Z,23.52
2023-09-09T06:51:27.200Z,23.55
2023-09-09T06:52:27.168Z,23.62
2023-09-09T06:53:27.189Z,23.71
2023-09-09T06:54:27.150Z,23.80
2023-09-09T06:55:27.144Z,23.87
2023-09-09T06:56:27.201Z,23.95
2023-09-09T06:57:27.110Z,24.04
2023-09-09T06:58:27.113Z,24.08
2023-09-09T06:59:27.108Z,24.17
2023-09-09T07:00:27.067Z,24.24
2023-09-09T07:01:27.094Z,24.31
2023-09-09T07:02:27.056Z,24.41
2023-09-09T07:03:27.109Z,24.49
2023-09-09T07:04:27.111Z,24.57
2023-09-09T07:05:27.020Z,24.68
2023-09-09T07:06:26.978Z,24.76
2023-09-09T07:07:30.160Z,24.85
2023-09-09T07:08:26.992Z,24.95
2023-09-09T07:09:26.964Z,25.06
2023-09-09T07:10:26.982Z,25.15
2023-09-09T07:11:26.937Z,25.30
2023-09-09T07:12:26.927Z,25.56
2023-09-09T07:13:26.907Z,26.11
2023-09-09T07:14:26.895Z,26.74
2023-09-09T07:15:27.520Z,27.02
2023-09-09T07:16:26.919Z,27.09
2023-09-09T07:17:26.883Z,27.33
2023-09-09T07:18:26.915Z,27.76
2023-09-09T07:19:26.848Z,28.03
2023-09-09T07:20:26.822Z,28.16
2023-09-09T07:21:26.805Z,28.33
2023-09-09T07:22:26.774Z,28.68
2023-09-09T07:23:26.808Z,29.10
2023-09-09T07:24:26.756Z,29.26
2023-09-09T07:25:26.857Z,29.38
2023-09-09T07:26:26.743Z,29.53
2023-09-09T07:27:26.718Z,29.77
2023-09-09T07:28:26.716Z,30.08
2023-09-09T07:29:26.738Z,30.53
2023-09-09T07:30:26.682Z,30.87
2023-09-09T07:31:26.759Z,31.70
2023-09-09T07:32:26.664Z,32.57
2023-09-09T07:33:26.650Z,33.63
2023-09-09T07:34:26.616Z,35.10
2023-09-09T07:35:26.627Z,35.74
2023-09-09T07:36:26.595Z,35.66
2023-09-09T07:37:29.216Z,35.57
2023-09-09T07:38:26.571Z,35.86
2023-09-09T07:39:26.570Z,37.29
2023-09-09T07:40:26.541Z,38.24
2023-09-09T07:41:26.552Z,38.82
2023-09-09T07:42:26.835Z,38.98
2023-09-09T07:43:26.548Z,39.13
2023-09-09T07:44:26.502Z,39.73
2023-09-09T07:45:26.484Z,40.56
2023-09-09T07:46:26.472Z,40.72
2023-09-09T07:47:26.545Z,41.78
2023-09-09T07:48:26.464Z,43.37
2023-09-09T07:49:26.457Z,44.61
2023-09-09T07:50:26.459Z,45.78
2023-09-09T07:51:26.401Z,46.79
2023-09-09T07:52:26.455Z,47.74
2023-09-09T07:53:26.423Z,48.59
2023-09-09T07:54:26.360Z,49.33
2023-09-09T07:55:26.425Z,50.00
2023-09-09T07:56:26.349Z,50.58
2023-09-09T07:57:26.356Z,51.06
2023-09-09T07:58:26.304Z,51.60
2023-09-09T07:59:26.298Z,52.09
2023-09-09T08:00:26.358Z,52.57
2023-09-09T08:01:26.300Z,52.90
2023-09-09T08:02:26.270Z,53.20
2023-09-09T08:03:26.445Z,53.48
2023-09-09T08:04:26.300Z,53.62
2023-09-09T08:05:26.269Z,53.06
2023-09-09T08:06:26.211Z,51.68
2023-09-09T08:07:26.212Z,50.55
2023-09-09T08:08:26.198Z,49.88
2023-09-09T08:09:26.222Z,50.14
2023-09-09T08:10:26.155Z,51.20
2023-09-09T08:11:26.191Z,52.15
2023-09-09T08:12:26.165Z,52.78
2023-09-09T08:13:26.168Z,53.23
2023-09-09T08:14:26.108Z,53.67
2023-09-09T08:15:38.246Z,53.99
2023-09-09T08:16:26.163Z,54.31
2023-09-09T08:17:26.142Z,54.56
2023-09-09T08:18:26.043Z,54.91
2023-09-09T08:19:26.088Z,55.31
2023-09-09T08:20:26.027Z,55.64
2023-09-09T08:21:26.050Z,56.05
2023-09-09T08:22:26.023Z,56.41
2023-09-09T08:23:26.028Z,56.76
2023-09-09T08:24:25.994Z,57.11
2023-09-09T08:25:25.965Z,57.35
2023-09-09T08:26:26.057Z,57.59
2023-09-09T08:27:25.956Z,57.82
2023-09-09T08:28:25.938Z,58.08
2023-09-09T08:29:32.011Z,58.28
2023-09-09T08:30:25.879Z,58.52
2023-09-09T08:31:26.029Z,58.77
2023-09-09T08:32:28.616Z,59.03
2023-09-09T08:33:25.858Z,59.37
2023-09-09T08:34:25.838Z,59.69
2023-09-09T08:35:25.850Z,60.02
2023-09-09T08:36:25.825Z,60.33
2023-09-09T08:37:25.816Z,60.66
2023-09-09T08:38:25.824Z,60.95
2023-09-09T08:39:25.781Z,61.22
2023-09-09T08:40:25.871Z,61.39
2023-09-09T08:41:26.353Z,61.52
2023-09-09T08:42:25.787Z,61.64
2023-09-09T08:43:25.766Z,61.73
2023-09-09T08:44:25.711Z,61.78
2023-09-09T08:45:25.798Z,61.85
2023-09-09T08:46:25.715Z,61.94
2023-09-09T08:47:27.156Z,62.01
2023-09-09T08:48:25.877Z,62.16
2023-09-09T08:49:25.687Z,62.36
2023-09-09T08:50:25.646Z,62.58
2023-09-09T08:51:25.638Z,62.82
2023-09-09T08:52:25.702Z,63.05
2023-09-09T08:53:25.614Z,63.28
2023-09-09T08:54:25.589Z,63.47
2023-09-09T08:55:25.639Z,63.63
2023-09-09T08:56:25.566Z,63.79
2023-09-09T08:57:25.658Z,63.84
2023-09-09T08:58:25.560Z,64.08
2023-09-09T08:59:25.558Z,64.28
2023-09-09T09:00:25.829Z,64.38
2023-09-09T09:01:25.621Z,64.44
2023-09-09T09:02:25.522Z,64.49
2023-09-09T09:03:25.558Z,64.47
2023-09-09T09:04:25.647Z,64.47
2023-09-09T09:05:25.538Z,64.41
2023-09-09T09:06:25.462Z,64.44
2023-09-09T09:07:25.489Z,64.38
2023-09-09T09:08:25.444Z,64.38
2023-09-09T09:09:25.455Z,64.37
2023-09-09T09:10:25.444Z,64.36
2023-09-09T09:11:25.411Z,64.38
2023-09-09T09:12:25.375Z,64.33
2023-09-09T09:13:25.381Z,64.15
2023-09-09T09:14:25.370Z,63.65
2023-09-09T09:15:25.372Z,61.19
2023-09-09T09:16:25.325Z,57.62
2023-09-09T09:17:25.367Z,54.81
2023-09-09T09:18:25.354Z,52.77
2023-09-09T09:19:25.311Z,51.58
2023-09-09T09:20:25.290Z,51.04
2023-09-09T09:21:25.278Z,51.97
2023-09-09T09:22:25.270Z,54.36
2023-09-09T09:23:25.257Z,56.35
2023-09-09T09:24:25.614Z,57.71
2023-09-09T09:25:25.228Z,58.70
2023-09-09T09:26:25.211Z,59.09
2023-09-09T09:27:25.232Z,58.73
2023-09-09T09:28:25.185Z,58.87
2023-09-09T09:29:25.207Z,59.88
2023-09-09T09:30:27.696Z,60.79
2023-09-09T09:31:25.193Z,61.51
2023-09-09T09:32:25.177Z,62.04
2023-09-09T09:33:25.169Z,62.45
2023-09-09T09:34:25.112Z,62.80
2023-09-09T09:35:25.113Z,63.11
2023-09-09T09:36:25.099Z,63.38
2023-09-09T09:37:25.102Z,63.56
2023-09-09T09:38:25.082Z,63.82
2023-09-09T09:39:25.065Z,64.08
2023-09-09T09:40:25.051Z,64.43
2023-09-09T09:41:25.036Z,64.70
2023-09-09T09:42:25.032Z,64.96
2023-09-09T09:43:25.064Z,65.18
2023-09-09T09:44:25.100Z,65.34
2023-09-09T09:45:25.022Z,65.41
2023-09-09T09:46:25.040Z,65.53
2023-09-09T09:47:24.969Z,65.58
2023-09-09T09:48:24.971Z,65.59
2023-09-09T09:49:24.954Z,65.54
2023-09-09T09:50:24.924Z,65.48
2023-09-09T09:51:24.935Z,65.48
2023-09-09T09:52:24.909Z,65.53
2023-09-09T09:53:24.915Z,65.59
2023-09-09T09:54:24.962Z,65.67
2023-09-09T09:55:24.914Z,65.78
2023-09-09T09:56:24.880Z,66.02
2023-09-09T09:57:24.873Z,66.21
2023-09-09T09:58:24.909Z,66.31
2023-09-09T09:59:24.836Z,66.38
2023-09-09T10:00:24.811Z,66.57
2023-09-09T10:01:24.821Z,66.76
2023-09-09T10:02:24.850Z,66.99
2023-09-09T10:03:24.808Z,67.10
2023-09-09T10:04:24.834Z,67.01
2023-09-09T10:05:24.798Z,66.87
2023-09-09T10:06:24.738Z,66.70
2023-09-09T10:07:24.737Z,66.52
2023-09-09T10:08:24.741Z,66.33
2023-09-09T10:09:24.732Z,66.18
2023-09-09T10:10:24.700Z,66.08
2023-09-09T10:11:24.694Z,66.01
2023-09-09T10:12:37.230Z,65.88
2023-09-09T10:13:24.736Z,65.79
2023-09-09T10:14:24.678Z,65.72
2023-09-09T10:15:24.662Z,65.70
2023-09-09T10:16:24.668Z,65.72
2023-09-09T10:17:24.672Z,65.72
2023-09-09T10:18:24.617Z,65.81
2023-09-09T10:19:24.617Z,65.89
2023-09-09T10:20:24.611Z,65.99
2023-09-09T10:21:41.520Z,66.11
2023-09-09T10:22:24.610Z,66.19
2023-09-09T10:23:24.550Z,66.31
2023-09-09T10:24:24.568Z,66.37
2023-09-09T10:25:24.541Z,66.43
2023-09-09T10:26:24.583Z,66.43
2023-09-09T10:27:24.513Z,66.41
2023-09-09T10:28:24.525Z,66.38
2023-09-09T10:29:24.508Z,66.29
2023-09-09T10:30:24.480Z,66.25
2023-09-09T10:31:24.495Z,66.30
2023-09-09T10:32:24.492Z,66.29
2023-09-09T10:33:24.471Z,66.29
2023-09-09T10:34:24.445Z,66.33
2023-09-09T10:35:24.440Z,66.44
2023-09-09T10:36:24.411Z,66.53
2023-09-09T10:37:24.392Z,66.54
2023-09-09T10:38:24.409Z,66.57
2023-09-09T10:39:24.571Z,66.61
2023-09-09T10:40:24.384Z,66.61
2023-09-09T10:41:24.348Z,66.66
2023-09-09T10:42:24.384Z,66.75
2023-09-09T10:43:24.332Z,66.87
2023-09-09T10:44:24.350Z,66.88
2023-09-09T10:45:24.344Z,66.88
2023-09-09T10:46:24.442Z,66.85
2023-09-09T10:47:24.318Z,66.85
2023-09-09T10:48:24.276Z,66.78
2023-09-09T10:49:24.254Z,66.72
2023-09-09T10:50:24.370Z,66.59
2023-09-09T10:51:24.232Z,66.57
2023-09-09T10:52:24.231Z,66.60
2023-09-09T10:53:24.229Z,66.78
2023-09-09T10:54:24.219Z,66.94
2023-09-09T10:55:24.211Z,66.98
2023-09-09T10:56:24.196Z,66.95
2023-09-09T10:57:24.182Z,66.89
2023-09-09T10:58:24.199Z,66.79
2023-09-09T10:59:24.157Z,66.76
2023-09-09T11:00:24.154Z,66.72
2023-09-09T11:01:24.145Z,66.63
2023-09-09T11:02:24.298Z,66.45
2023-09-09T11:03:24.102Z,66.33
2023-09-09T11:04:24.164Z,66.24
2023-09-09T11:05:24.182Z,66.19
2023-09-09T11:06:24.064Z,66.21
2023-09-09T11:07:24.054Z,66.22
2023-09-09T11:08:24.124Z,66.24
2023-09-09T11:09:24.026Z,66.21
2023-09-09T11:10:24.036Z,66.25
2023-09-09T11:11:24.004Z,66.30
2023-09-09T11:12:24.003Z,66.18
2023-09-09T11:13:23.988Z,65.99
2023-09-09T11:14:23.996Z,65.90
2023-09-09T11:15:23.994Z,65.86
2023-09-09T11:16:24.016Z,65.94
2023-09-09T11:17:23.960Z,66.01
2023-09-09T11:18:23.955Z,66.01
2023-09-09T11:19:23.925Z,66.05
2023-09-09T11:20:23.985Z,66.08
2023-09-09T11:21:23.896Z,66.05
2023-09-09T11:22:23.904Z,66.01
2023-09-09T11:23:23.919Z,65.98
2023-09-09T11:24:23.862Z,65.88
2023-09-09T11:25:23.845Z,65.81
2023-09-09T11:26:23.849Z,65.85
2023-09-09T11:27:23.827Z,65.82
2023-09-09T11:28:23.833Z,65.76
2023-09-09T11:29:36.503Z,65.76
2023-09-09T11:30:23.796Z,65.85
2023-09-09T11:31:23.809Z,65.88
2023-09-09T11:32:23.924Z,65.81
2023-09-09T11:33:23.784Z,65.69
2023-09-09T11:34:23.788Z,65.56
2023-09-09T11:35:23.721Z,65.40
2023-09-09T11:36:23.728Z,65.37
2023-09-09T11:37:24.249Z,65.31
2023-09-09T11:38:23.697Z,65.37
2023-09-09T11:39:23.686Z,65.39
2023-09-09T11:40:23.677Z,65.47
2023-09-09T11:41:23.679Z,65.40
2023-09-09T11:42:23.676Z,65.25
2023-09-09T11:43:23.746Z,65.09
2023-09-09T11:44:23.677Z,65.04
2023-09-09T11:45:23.652Z,64.99
2023-09-09T11:46:23.663Z,64.96
2023-09-09T11:47:23.694Z,64.93
2023-09-09T11:48:23.644Z,64.95
2023-09-09T11:49:23.591Z,64.81
2023-09-09T11:50:23.610Z,64.67
2023-09-09T11:51:23.559Z,64.40
2023-09-09T11:52:23.564Z,64.11
2023-09-09T11:53:23.550Z,63.75
2023-09-09T11:54:23.565Z,63.38
2023-09-09T11:55:23.542Z,62.87
2023-09-09T11:56:23.493Z,62.24
2023-09-09T11:57:23.479Z,61.08
2023-09-09T11:58:23.518Z,59.15
2023-09-09T11:59:23.446Z,56.89
2023-09-09T12:00:23.459Z,54.94
2023-09-09T12:01:23.522Z,53.16
2023-09-09T12:02:23.514Z,51.56
2023-09-09T12:03:23.575Z,50.12
2023-09-09T12:04:23.518Z,48.84
2023-09-09T12:05:24.763Z,47.68
2023-09-09T12:06:23.373Z,46.72
2023-09-09T12:07:23.449Z,45.84
2023-09-09T12:08:23.358Z,45.11
2023-09-09T12:09:23.338Z,44.40
2023-09-09T12:10:23.335Z,43.79
2023-09-09T12:11:23.348Z,43.22
2023-09-09T12:12:23.310Z,42.66
2023-09-09T12:13:23.290Z,42.20
2023-09-09T12:14:23.305Z,41.78
2023-09-09T12:15:23.264Z,41.41
2023-09-09T12:16:23.286Z,41.06
2023-09-09T12:17:24.049Z,40.74
2023-09-09T12:18:23.327Z,40.40
2023-09-09T12:19:23.210Z,40.10
2023-09-09T12:20:23.210Z,39.76
2023-09-09T12:21:23.188Z,39.40
2023-09-09T12:22:23.184Z,39.09
2023-09-09T12:23:23.157Z,38.80
2023-09-09T12:24:23.189Z,38.51
2023-09-09T12:25:23.133Z,38.24
2023-09-09T12:26:23.132Z,37.99
2023-09-09T12:27:23.111Z,37.78
2023-09-09T12:28:23.119Z,37.61
2023-09-09T12:29:23.239Z,37.46
2023-09-09T12:30:23.078Z,37.31
2023-09-09T12:31:23.104Z,37.14
2023-09-09T12:32:23.138Z,37.02
2023-09-09T12:33:23.078Z,36.85
2023-09-09T12:34:23.029Z,36.73
2023-09-09T12:35:23.001Z,36.61
2023-09-09T12:36:23.075Z,36.51
2023-09-09T12:37:22.984Z,36.41
2023-09-09T12:38:23.299Z,36.31
2023-09-09T12:39:23.413Z,36.26
2023-09-09T12:40:22.955Z,36.19
2023-09-09T12:41:22.964Z,36.06
2023-09-09T12:42:22.930Z,35.97
2023-09-09T12:43:22.924Z,35.89
2023-09-09T12:44:22.954Z,35.77
2023-09-09T12:45:22.983Z,35.70
2023-09-09T12:46:22.959Z,35.60
2023-09-09T12:47:22.960Z,35.50
2023-09-09T12:48:22.857Z,35.40
2023-09-09T12:49:22.859Z,35.35
2023-09-09T12:50:22.828Z,35.20
2023-09-09T12:51:22.802Z,35.13
2023-09-09T12:52:22.805Z,34.98